Time;durP1;ratioP1;P1;durP2;ratioP2;P2;SDS_P1;SDS_P2;PMS_P1;PMS_P2;Temp;Humidity;BMP_temperature;BMP_pressure;BME280_temperature;BME280_humidity;BME280_pressure;Samples;Min_cycle;Max_cycle;Signal;HPM_P1;HPM_P2
2021/01/27 00:01:12;;;;;;;11.63;5.55;;;0.50;99.90;;;;;;5035179;28;20021;-77
2021/01/27 00:03:37;;;;;;;12.82;7.13;;;0.30;99.90;;;;;;5035129;28;20048;-77
2021/01/27 00:06:03;;;;;;;12.48;6.90;;;0.30;99.90;;;;;;5053357;28;20083;-77
2021/01/27 00:08:29;;;;;;;12.50;7.15;;;0.10;99.90;;;;;;5035063;28;20553;-77
2021/01/27 00:10:55;;;;;;;15.48;6.38;;;0.00;99.90;;;;;;5035166;28;20021;-77
2021/01/27 00:13:20;;;;;;;9.25;6.50;;;-0.10;99.90;;;;;;5035080;28;20029;-77
2021/01/27 00:15:47;;;;;;;8.32;5.30;;;-0.10;99.90;;;;;;5037395;28;20388;-77
2021/01/27 00:18:15;;;;;;;10.50;5.45;;;0.10;99.90;;;;;;5038511;28;20045;-77
2021/01/27 00:20:42;;;;;;;12.10;5.72;;;0.00;99.90;;;;;;5039078;28;20099;-77
2021/01/27 00:23:08;;;;;;;11.48;5.60;;;0.10;99.90;;;;;;5056611;28;20040;-77
2021/01/27 00:25:36;;;;;;;10.90;5.07;;;0.20;99.90;;;;;;5038655;28;20025;-77
2021/01/27 00:28:03;;;;;;;8.45;5.28;;;0.20;99.90;;;;;;5038513;28;20028;-77
2021/01/27 00:30:34;;;;;;;9.27;5.70;;;0.10;99.90;;;;;;5022249;28;20487;-77
2021/01/27 00:33:01;;;;;;;9.73;5.40;;;0.00;99.90;;;;;;5056443;28;20532;-77
2021/01/27 00:35:31;;;;;;;11.63;5.70;;;-0.20;99.90;;;;;;5038525;28;20032;-77
2021/01/27 00:37:58;;;;;;;10.13;5.70;;;-0.20;99.90;;;;;;5038296;28;20028;-77
2021/01/27 00:40:24;;;;;;;8.85;4.93;;;0.00;99.90;;;;;;5038435;28;20018;-77
2021/01/27 00:42:50;;;;;;;8.98;5.03;;;0.20;99.90;;;;;;5038369;28;20021;-77
2021/01/27 00:45:17;;;;;;;10.15;5.60;;;0.30;99.90;;;;;;5038462;28;20420;-77
2021/01/27 00:47:43;;;;;;;13.07;5.85;;;0.30;99.90;;;;;;5038253;28;20032;-77
2021/01/27 00:50:10;;;;;;;9.13;5.82;;;0.10;99.90;;;;;;5038206;28;20029;-77
2021/01/27 00:52:35;;;;;;;8.80;5.63;;;0.10;99.90;;;;;;5038162;28;20083;-77
2021/01/27 00:55:01;;;;;;;10.05;6.22;;;0.00;99.90;;;;;;5038111;28;20033;-77
2021/01/27 00:57:27;;;;;;;10.10;5.60;;;0.00;99.90;;;;;;5038007;28;20496;-77
2021/01/27 00:59:53;;;;;;;10.20;5.82;;;0.00;99.90;;;;;;5055900;28;20028;-77
2021/01/27 01:02:19;;;;;;;8.95;5.72;;;0.00;99.90;;;;;;5038017;28;20530;-77
2021/01/27 01:04:44;;;;;;;10.27;5.80;;;0.20;99.90;;;;;;5037991;28;20516;-77
2021/01/27 01:07:10;;;;;;;10.10;5.68;;;0.20;99.90;;;;;;5037926;28;20063;-77
2021/01/27 01:09:36;;;;;;;7.45;5.20;;;0.30;99.90;;;;;;5037867;28;20063;-77
2021/01/27 01:12:01;;;;;;;8.88;5.55;;;0.30;99.90;;;;;;5037768;28;20025;-77
2021/01/27 01:14:27;;;;;;;9.80;5.35;;;0.30;99.90;;;;;;5055623;28;20419;-78
2021/01/27 01:16:53;;;;;;;9.70;5.65;;;0.40;99.90;;;;;;5037631;28;20028;-77
2021/01/27 01:19:19;;;;;;;8.95;5.28;;;0.20;99.90;;;;;;5055528;28;20041;-78
2021/01/27 01:21:45;;;;;;;11.13;6.47;;;0.20;99.90;;;;;;5037673;28;20114;-77
2021/01/27 01:24:10;;;;;;;12.23;5.65;;;0.20;99.90;;;;;;5037660;28;20060;-77
2021/01/27 01:26:36;;;;;;;8.73;5.60;;;0.40;99.90;;;;;;5037116;28;20028;-77
2021/01/27 01:29:02;;;;;;;9.02;5.47;;;0.40;99.90;;;;;;5037541;28;20024;-77
2021/01/27 01:31:28;;;;;;;8.65;5.57;;;0.50;99.90;;;;;;5037471;28;20501;-78
2021/01/27 01:33:54;;;;;;;9.68;5.18;;;0.50;99.90;;;;;;5037423;28;20060;-77
2021/01/27 01:36:19;;;;;;;11.55;5.00;;;0.50;99.90;;;;;;5037236;28;20032;-77
2021/01/27 01:38:45;;;;;;;7.97;5.45;;;0.40;99.90;;;;;;5055163;28;20472;-78
2021/01/27 01:41:11;;;;;;;8.40;4.90;;;0.40;99.90;;;;;;5037316;28;20027;-77
2021/01/27 01:43:39;;;;;;;8.25;4.68;;;0.30;99.90;;;;;;5037247;28;20032;-77
2021/01/27 01:46:13;;;;;;;9.30;5.22;;;0.20;99.90;;;;;;5037185;28;20028;-77
2021/01/27 01:48:40;;;;;;;6.68;4.57;;;0.00;99.90;;;;;;5037112;28;20031;-78
2021/01/27 01:51:25;;;;;;;7.95;4.80;;;0.10;99.90;;;;;;5037157;28;20033;-77
2021/01/27 01:53:55;;;;;;;9.30;5.05;;;0.20;99.90;;;;;;5036978;28;20035;-77
2021/01/27 01:56:25;;;;;;;9.23;5.05;;;0.00;99.90;;;;;;5055054;28;20071;-77
2021/01/27 01:58:58;;;;;;;8.13;5.35;;;-0.10;99.90;;;;;;5036914;28;20048;-77
2021/01/27 02:01:24;;;;;;;9.65;4.78;;;0.10;99.90;;;;;;5037206;28;20078;-77
2021/01/27 02:03:52;;;;;;;7.97;5.30;;;0.00;99.90;;;;;;5036763;28;20025;-77
2021/01/27 02:06:18;;;;;;;8.15;4.95;;;-0.10;99.90;;;;;;5054985;28;20036;-77
2021/01/27 02:08:47;;;;;;;9.05;5.20;;;-0.10;99.90;;;;;;5036713;28;20384;-78
2021/01/27 02:11:17;;;;;;;9.00;4.93;;;-0.10;99.90;;;;;;5036626;28;20369;-77
2021/01/27 02:14:06;;;;;;;7.40;5.00;;;-0.10;99.90;;;;;;5036570;28;20053;-77
2021/01/27 02:16:36;;;;;;;10.05;5.50;;;0.10;99.90;;;;;;5054383;28;20074;-78
2021/01/27 02:19:46;;;;;;;7.88;5.25;;;0.10;99.90;;;;;;5036325;28;20064;-77
2021/01/27 02:22:34;;;;;;;9.73;5.65;;;0.00;99.90;;;;;;5036461;28;20021;-77
2021/01/27 02:25:28;;;;;;;12.27;5.50;;;0.00;99.90;;;;;;5036379;28;20029;-77
2021/01/27 02:27:55;;;;;;;;;;;0.10;99.90;;;;;;5054704;28;20029;-77
2021/01/27 02:30:52;;;;;;;8.18;5.28;;;-0.10;99.90;;;;;;5036315;28;19953;-77
2021/01/27 02:33:35;;;;;;;9.52;5.10;;;-0.20;99.90;;;;;;5036215;28;20029;-77
2021/01/27 02:36:04;;;;;;;9.75;5.72;;;0.00;99.90;;;;;;5036146;28;20031;-77
2021/01/27 02:38:48;;;;;;;9.32;6.10;;;0.30;99.90;;;;;;5035331;28;20025;-77
2021/01/27 02:41:20;;;;;;;;;;;0.50;99.90;;;;;;5036586;28;20017;-77
2021/01/27 02:43:52;;;;;;;13.32;5.40;;;0.40;99.90;;;;;;5054013;28;20249;-78
2021/01/27 02:46:41;;;;;;;11.73;5.72;;;0.10;99.90;;;;;;5036099;28;20056;-77
2021/01/27 02:49:26;;;;;;;9.38;5.75;;;-0.10;99.90;;;;;;5036011;28;20059;-77
2021/01/27 02:52:14;;;;;;;8.40;5.40;;;-0.20;99.90;;;;;;5035968;28;20035;-77
2021/01/27 02:54:59;;;;;;;11.85;5.65;;;-0.20;99.90;;;;;;5053810;28;20021;-77
2021/01/27 02:57:45;;;;;;;10.18;5.65;;;0.00;99.90;;;;;;5035746;28;20025;-77
2021/01/27 03:00:24;;;;;;;9.18;5.70;;;0.10;99.90;;;;;;5054008;28;20063;-78
2021/01/27 03:03:17;;;;;;;9.30;5.80;;;0.40;99.90;;;;;;5035956;28;20075;-78
2021/01/27 03:05:49;;;;;;;8.85;5.30;;;0.50;99.90;;;;;;5018687;28;20086;-77
2021/01/27 03:08:21;;;;;;;9.68;5.45;;;0.30;99.90;;;;;;5053639;28;20028;-77
2021/01/27 03:11:10;;;;;;;9.60;5.22;;;0.20;99.90;;;;;;5053571;28;20020;-77
2021/01/27 03:13:37;;;;;;;8.20;4.82;;;0.40;99.90;;;;;;5035682;28;20029;-78
2021/01/27 03:16:08;;;;;;;9.93;5.57;;;0.50;99.90;;;;;;5035559;28;20028;-77
2021/01/27 03:18:37;;;;;;;10.15;5.75;;;0.20;99.90;;;;;;5035425;28;20053;-77
2021/01/27 03:21:17;;;;;;;7.10;4.90;;;0.20;99.90;;;;;;5035608;28;20025;-77
2021/01/27 03:24:01;;;;;;;10.43;5.88;;;0.40;99.90;;;;;;5036305;28;20021;-77
2021/01/27 03:26:35;;;;;;;8.10;5.40;;;0.40;99.90;;;;;;5053442;28;20403;-77
2021/01/27 03:29:39;;;;;;;;;;;0.40;99.90;;;;;;5053827;28;20553;-77
2021/01/27 03:32:11;;;;;;;9.32;5.60;;;0.60;99.90;;;;;;4937281;29;19906;-77
2021/01/27 03:34:45;;;;;;;13.18;5.75;;;0.50;99.90;;;;;;4937313;29;20058;-77
2021/01/27 03:37:45;;;;;;;11.93;5.68;;;0.50;99.90;;;;;;5010028;28;20492;-77
2021/01/27 03:40:15;;;;;;;7.82;5.25;;;0.50;99.90;;;;;;5014056;28;20029;-78
2021/01/27 03:43:06;;;;;;;8.57;5.97;;;0.60;99.90;;;;;;5053757;28;20020;-77
2021/01/27 03:45:36;;;;;;;8.75;5.53;;;0.30;99.90;;;;;;5035420;28;20094;-78
2021/01/27 03:48:45;;;;;;;11.77;6.05;;;-0.10;99.90;;;;;;5053162;28;20018;-77
2021/01/27 03:51:12;;;;;;;10.57;5.40;;;-0.30;99.90;;;;;;5039372;28;20027;-78
2021/01/27 03:53:40;;;;;;;9.95;6.50;;;-0.30;99.90;;;;;;5039312;28;20025;-77
2021/01/27 03:56:14;;;;;;;11.45;6.10;;;-0.30;99.90;;;;;;5039194;28;20025;-77
2021/01/27 03:58:42;;;;;;;10.38;5.63;;;-0.30;99.90;;;;;;5039223;28;20025;-78
2021/01/27 04:01:11;;;;;;;9.30;5.30;;;-0.10;99.90;;;;;;5039135;28;20044;-77
2021/01/27 04:03:37;;;;;;;11.75;5.78;;;-0.20;99.90;;;;;;5039080;28;20025;-77
2021/01/27 04:06:04;;;;;;;12.00;5.80;;;-0.10;99.90;;;;;;5039111;28;20025;-78
2021/01/27 04:08:30;;;;;;;8.30;5.68;;;0.00;99.90;;;;;;5039231;28;20036;-77
2021/01/27 04:10:56;;;;;;;8.45;5.70;;;0.10;99.90;;;;;;5039013;28;20112;-77
2021/01/27 04:13:21;;;;;;;10.75;5.90;;;0.30;99.90;;;;;;5038947;28;20043;-77
2021/01/27 04:15:47;;;;;;;9.80;5.38;;;0.40;99.90;;;;;;5038860;28;20480;-76
2021/01/27 04:18:13;;;;;;;10.40;4.95;;;0.30;99.90;;;;;;5038569;28;20136;-78
2021/01/27 04:20:39;;;;;;;8.80;5.50;;;0.10;99.90;;;;;;5039075;28;20036;-77
2021/01/27 04:23:05;;;;;;;7.88;5.82;;;0.30;99.90;;;;;;5056604;28;20028;-77
2021/01/27 04:25:31;;;;;;;8.45;5.45;;;0.30;99.90;;;;;;5038702;28;20473;-77
2021/01/27 04:27:57;;;;;;;10.45;6.07;;;0.10;99.90;;;;;;5056815;28;20468;-78
2021/01/27 04:30:26;;;;;;;8.02;5.28;;;0.30;99.90;;;;;;5056487;28;20040;-77
2021/01/27 04:32:52;;;;;;;10.40;5.40;;;0.50;99.90;;;;;;5038596;28;20437;-77
2021/01/27 04:35:19;;;;;;;9.65;5.60;;;0.60;99.90;;;;;;5038553;28;20064;-77
2021/01/27 04:37:45;;;;;;;8.55;5.22;;;0.40;99.90;;;;;;5038286;28;20392;-77
2021/01/27 04:40:16;;;;;;;10.77;5.60;;;0.20;99.90;;;;;;5038410;28;20380;-78
2021/01/27 04:42:42;;;;;;;8.50;5.50;;;0.10;99.90;;;;;;5038285;28;20021;-78
2021/01/27 04:45:08;;;;;;;8.68;5.50;;;0.20;99.90;;;;;;5056257;28;20023;-77
2021/01/27 04:48:01;;;;;;;7.70;5.05;;;0.10;99.90;;;;;;5038274;28;20033;-77
2021/01/27 04:50:56;;;;;;;8.65;5.22;;;0.30;99.90;;;;;;5038234;28;20112;-77
2021/01/27 04:53:48;;;;;;;8.35;5.13;;;0.50;99.90;;;;;;5036156;28;20534;-77
2021/01/27 04:56:38;;;;;;;10.32;5.07;;;0.60;99.90;;;;;;5056010;28;20090;-77
2021/01/27 04:59:31;;;;;;;7.53;5.05;;;0.70;99.90;;;;;;5056510;28;20468;-77
2021/01/27 05:02:27;;;;;;;9.90;4.97;;;0.70;99.90;;;;;;5037403;28;20412;-77
2021/01/27 05:05:09;;;;;;;6.28;4.35;;;0.60;99.90;;;;;;5055911;28;20469;-77
2021/01/27 05:08:07;;;;;;;7.38;4.70;;;0.70;99.90;;;;;;5038205;28;20028;-77
2021/01/27 05:10:59;;;;;;;7.90;4.78;;;0.70;99.90;;;;;;5037880;28;20120;-78
2021/01/27 05:13:43;;;;;;;7.95;4.57;;;0.70;99.90;;;;;;5038153;28;20116;-78
2021/01/27 05:16:18;;;;;;;6.47;4.50;;;0.70;99.90;;;;;;5055453;28;20037;-77
2021/01/27 05:18:45;;;;;;;9.73;4.82;;;0.80;99.90;;;;;;5037604;28;20497;-78
2021/01/27 05:21:31;;;;;;;7.78;4.40;;;0.70;99.90;;;;;;5037618;28;20024;-77
2021/01/27 05:23:57;;;;;;;9.07;5.20;;;0.70;99.90;;;;;;5037037;28;20120;-77
2021/01/27 05:26:39;;;;;;;8.50;4.60;;;0.70;99.90;;;;;;5037618;28;20075;-77
2021/01/27 05:29:18;;;;;;;9.38;4.90;;;0.70;99.90;;;;;;5037536;28;20052;-77
2021/01/27 05:32:13;;;;;;;9.20;5.22;;;0.90;99.90;;;;;;5055429;28;20021;-78
2021/01/27 05:34:46;;;;;;;8.25;5.10;;;0.80;99.90;;;;;;5037565;28;20033;-77
2021/01/27 05:37:19;;;;;;;12.13;4.72;;;0.80;99.90;;;;;;5037239;28;20032;-78
2021/01/27 05:39:47;;;;;;;9.02;4.88;;;0.90;99.90;;;;;;5037473;28;20423;-77
2021/01/27 05:42:22;;;;;;;7.65;4.75;;;0.90;99.90;;;;;;5037295;28;20033;-78
2021/01/27 05:44:51;;;;;;;8.68;4.97;;;0.90;99.90;;;;;;5037307;28;20025;-77
2021/01/27 05:47:24;;;;;;;6.03;4.35;;;0.80;99.90;;;;;;5055288;28;20455;-78
2021/01/27 05:49:50;;;;;;;5.72;4.35;;;0.80;99.90;;;;;;5055002;28;20120;-77
2021/01/27 05:52:19;;;;;;;8.40;4.68;;;0.80;99.90;;;;;;5037008;28;20029;-77
2021/01/27 05:54:45;;;;;;;9.27;4.57;;;0.80;99.90;;;;;;5055234;28;20500;-77
2021/01/27 05:57:26;;;;;;;7.18;4.50;;;0.80;99.90;;;;;;5036960;28;20119;-77
2021/01/27 06:00:11;;;;;;;7.38;4.70;;;0.90;99.90;;;;;;5055011;28;20021;-77
2021/01/27 06:02:39;;;;;;;9.43;4.43;;;0.90;99.90;;;;;;5037781;28;20021;-77
2021/01/27 06:05:07;;;;;;;6.40;4.32;;;1.00;99.90;;;;;;5054768;28;20049;-77
2021/01/27 06:07:33;;;;;;;6.68;4.47;;;0.90;99.90;;;;;;5054999;28;20028;-77
2021/01/27 06:10:38;;;;;;;8.75;4.50;;;0.80;99.90;;;;;;5036949;28;20029;-77
2021/01/27 06:13:13;;;;;;;;;;;0.80;99.90;;;;;;5054541;28;20086;-77
2021/01/27 06:15:38;;;;;;;10.25;4.40;;;0.90;99.90;;;;;;5036783;28;19911;-78
2021/01/27 06:18:30;;;;;;;8.95;5.03;;;0.90;99.90;;;;;;5054513;28;20172;-78
2021/01/27 06:21:06;;;;;;;10.95;4.30;;;0.90;99.90;;;;;;5033758;28;20115;-78
2021/01/27 06:23:52;;;;;;;7.53;4.70;;;0.80;99.90;;;;;;5036581;28;20025;-77
2021/01/27 06:26:44;;;;;;;7.55;4.05;;;0.80;99.90;;;;;;5036472;28;20507;-77
2021/01/27 06:29:10;;;;;;;5.68;4.10;;;0.80;99.90;;;;;;5036463;28;20025;-77
2021/01/27 06:32:00;;;;;;;9.20;4.50;;;0.80;99.90;;;;;;5036393;28;20036;-78
2021/01/27 06:34:53;;;;;;;7.97;4.80;;;0.80;99.90;;;;;;5036366;28;20130;-77
2021/01/27 06:37:32;;;;;;;7.63;4.53;;;0.80;99.90;;;;;;5036127;28;20119;-77
2021/01/27 06:40:32;;;;;;;8.95;4.70;;;0.70;99.90;;;;;;5036237;28;20056;-77
2021/01/27 06:43:42;;;;;;;5.15;4.13;;;0.70;99.90;;;;;;4937902;29;20019;-78
2021/01/27 06:46:29;;;;;;;9.80;4.78;;;0.70;99.90;;;;;;5036096;28;20027;-77
2021/01/27 06:49:20;;;;;;;6.63;4.50;;;0.60;99.90;;;;;;5053905;28;20023;-77
2021/01/27 06:52:12;;;;;;;8.88;4.53;;;0.50;99.90;;;;;;5036114;28;20531;-78
2021/01/27 06:54:56;;;;;;;7.50;4.53;;;0.50;99.90;;;;;;5035972;28;20023;-77
2021/01/27 06:57:38;;;;;;;8.88;4.38;;;0.70;99.90;;;;;;5035841;28;20052;-78
2021/01/27 07:00:30;;;;;;;7.75;4.45;;;0.70;99.90;;;;;;5036674;28;20029;-77
2021/01/27 07:03:05;;;;;;;7.35;4.43;;;0.70;99.90;;;;;;5035982;28;20021;-77
2021/01/27 07:06:03;;;;;;;5.60;4.20;;;0.80;99.90;;;;;;5053607;28;20025;-77
2021/01/27 07:08:54;;;;;;;8.02;4.45;;;0.80;99.90;;;;;;5035793;28;20025;-77
2021/01/27 07:11:38;;;;;;;7.50;4.43;;;0.70;99.90;;;;;;5035727;28;20366;-77
2021/01/27 07:14:12;;;;;;;7.63;4.07;;;0.80;99.90;;;;;;5035578;28;20115;-77
2021/01/27 07:16:44;;;;;;;8.52;3.92;;;0.70;99.90;;;;;;5035554;28;20389;-77
2021/01/27 07:19:21;;;;;;;11.55;5.03;;;0.70;99.90;;;;;;5035420;28;20044;-77
2021/01/27 07:21:58;;;;;;;7.57;4.78;;;0.80;99.90;;;;;;5035581;28;20480;-77
2021/01/27 07:24:35;;;;;;;6.05;3.30;;;0.90;99.90;;;;;;5053029;28;20447;-77
2021/01/27 07:27:18;;;;;;;6.25;2.90;;;0.80;99.90;;;;;;5035534;28;20025;-78
2021/01/27 07:30:06;;;;;;;6.40;3.83;;;0.70;99.90;;;;;;5035517;28;20029;-78
2021/01/27 07:32:35;;;;;;;5.28;3.30;;;0.70;99.90;;;;;;5036066;28;20443;-77
2021/01/27 07:35:22;;;;;;;5.25;3.35;;;0.70;99.90;;;;;;5053330;28;20024;-77
2021/01/27 07:38:17;;;;;;;5.10;3.70;;;0.70;99.90;;;;;;5053134;28;20107;-77
2021/01/27 07:40:50;;;;;;;4.53;3.40;;;0.70;99.90;;;;;;5053491;28;20100;-78
2021/01/27 07:43:31;;;;;;;5.32;3.35;;;0.80;99.90;;;;;;5035452;28;20029;-77
2021/01/27 07:45:59;;;;;;;5.82;3.40;;;0.80;99.90;;;;;;5035333;28;20021;-77
2021/01/27 07:48:50;;;;;;;6.97;3.28;;;0.80;99.90;;;;;;5035260;28;20021;-77
2021/01/27 07:51:22;;;;;;;8.30;2.70;;;0.80;99.90;;;;;;5053396;28;20022;-77
2021/01/27 07:54:03;;;;;;;6.22;2.60;;;0.80;99.90;;;;;;5035367;28;20485;-78
2021/01/27 07:56:32;;;;;;;4.82;2.53;;;0.70;99.90;;;;;;5035040;28;20029;-77
2021/01/27 07:59:13;;;;;;;3.55;2.72;;;0.50;99.90;;;;;;5053121;28;20021;-77
2021/01/27 08:01:42;;;;;;;6.60;2.72;;;0.50;99.90;;;;;;5035293;28;20025;-78
2021/01/27 08:04:22;;;;;;;6.03;3.67;;;0.50;99.90;;;;;;5035129;28;20024;-78
2021/01/27 08:06:52;;;;;;;6.32;2.65;;;0.50;99.90;;;;;;5035178;28;20495;-77
2021/01/27 08:09:35;;;;;;;5.85;3.50;;;0.50;99.90;;;;;;5035137;28;20064;-78
2021/01/27 08:12:27;;;;;;;6.18;3.38;;;0.50;99.90;;;;;;5053028;28;20028;-77
2021/01/27 08:14:57;;;;;;;5.90;3.45;;;0.50;99.90;;;;;;5052959;28;20032;-78
2021/01/27 08:17:45;;;;;;;5.65;3.03;;;0.60;99.90;;;;;;5052855;28;20443;-78
2021/01/27 08:20:24;;;;;;;6.40;3.30;;;0.50;99.90;;;;;;5035955;28;20041;-77
2021/01/27 08:22:52;;;;;;;5.72;3.53;;;0.70;99.90;;;;;;5052936;28;20107;-77
2021/01/27 08:25:47;;;;;;;4.65;3.40;;;0.50;99.90;;;;;;5053125;28;20033;-77
2021/01/27 08:28:16;;;;;;;6.25;3.75;;;0.40;99.90;;;;;;5034879;28;20388;-77
2021/01/27 08:30:41;;;;;;;5.78;3.70;;;0.40;99.90;;;;;;5035038;28;20392;-77
2021/01/27 08:33:38;;;;;;;4.82;3.60;;;0.50;99.90;;;;;;5034881;28;20025;-77
2021/01/27 08:36:06;;;;;;;7.95;4.32;;;0.50;99.90;;;;;;5026609;28;20033;-77
2021/01/27 08:38:34;;;;;;;5.55;3.75;;;0.60;99.90;;;;;;5038525;28;20021;-78
2021/01/27 08:41:00;;;;;;;9.15;4.25;;;0.40;99.90;;;;;;5056226;28;20105;-77
2021/01/27 08:43:29;;;;;;;8.48;5.03;;;0.20;99.90;;;;;;5038321;28;20032;-77
2021/01/27 08:45:55;;;;;;;5.53;4.10;;;0.20;99.90;;;;;;5038336;28;20032;-77
2021/01/27 08:48:45;;;;;;;6.07;4.03;;;0.40;99.90;;;;;;5056154;28;20029;-77
2021/01/27 08:51:35;;;;;;;7.15;4.90;;;0.40;99.90;;;;;;5038201;28;20033;-77
2021/01/27 08:54:01;;;;;;;12.88;5.45;;;0.30;99.90;;;;;;5038198;28;20460;-77
2021/01/27 08:57:05;;;;;;;7.22;4.78;;;0.20;99.90;;;;;;5037971;28;20032;-77
2021/01/27 08:59:31;;;;;;;6.15;4.40;;;0.30;99.90;;;;;;5037905;28;20025;-77
2021/01/27 09:01:56;;;;;;;5.68;4.28;;;0.40;99.90;;;;;;5038048;28;20052;-77
2021/01/27 09:04:36;;;;;;;8.80;5.70;;;0.70;99.90;;;;;;5038044;28;20027;-77
2021/01/27 09:07:06;;;;;;;9.85;5.40;;;0.60;99.90;;;;;;5037994;28;20028;-78
2021/01/27 09:09:38;;;;;;;6.15;4.70;;;0.50;99.90;;;;;;5037917;28;20051;-77
2021/01/27 09:12:08;;;;;;;7.78;5.60;;;0.50;99.90;;;;;;5037820;28;20055;-79
2021/01/27 09:14:34;;;;;;;10.40;5.00;;;0.50;99.90;;;;;;5037850;28;20491;-77
2021/01/27 09:17:04;;;;;;;6.85;5.13;;;0.50;99.90;;;;;;5037748;28;20082;-77
2021/01/27 09:19:31;;;;;;;11.15;5.47;;;0.40;99.90;;;;;;5037587;28;20567;-77
2021/01/27 09:22:09;;;;;;;7.15;4.93;;;0.40;99.90;;;;;;5037708;28;20024;-77
2021/01/27 09:24:47;;;;;;;8.73;5.43;;;0.40;99.90;;;;;;5037628;28;20025;-77
2021/01/27 09:27:26;;;;;;;10.23;5.30;;;0.50;99.90;;;;;;5055493;28;20071;-77
2021/01/27 09:30:07;;;;;;;9.15;5.00;;;0.50;99.90;;;;;;5037590;28;20032;-77
2021/01/27 09:32:34;;;;;;;6.28;4.38;;;0.50;99.90;;;;;;5037516;28;20043;-77
2021/01/27 09:35:19;;;;;;;6.97;4.65;;;0.30;99.90;;;;;;5037487;28;20090;-77
2021/01/27 09:37:59;;;;;;;5.60;4.43;;;0.30;99.90;;;;;;5037304;28;20029;-77
2021/01/27 09:40:57;;;;;;;6.88;4.90;;;0.30;99.90;;;;;;5038223;28;20110;-77
2021/01/27 09:43:23;;;;;;;6.70;4.55;;;0.40;99.90;;;;;;5015988;28;20457;-77
2021/01/27 09:45:51;;;;;;;6.95;4.40;;;0.50;99.90;;;;;;5037261;28;20025;-77
2021/01/27 09:48:19;;;;;;;7.95;4.88;;;0.40;99.90;;;;;;5036860;28;20112;-77
2021/01/27 09:50:59;;;;;;;7.65;4.63;;;0.40;99.90;;;;;;5036959;28;20389;-78
2021/01/27 09:53:33;;;;;;;6.15;4.30;;;0.50;99.90;;;;;;5037357;28;20029;-78
2021/01/27 09:56:00;;;;;;;7.85;4.40;;;0.60;99.90;;;;;;5036989;28;20028;-77
2021/01/27 09:58:27;;;;;;;6.03;3.90;;;0.70;99.90;;;;;;5036870;28;20025;-77
2021/01/27 10:01:05;;;;;;;6.22;3.92;;;0.40;99.90;;;;;;5037042;28;20021;-77
2021/01/27 10:03:42;;;;;;;4.57;3.90;;;0.50;99.90;;;;;;5034076;28;20025;-77
2021/01/27 10:06:51;;;;;;;7.38;4.28;;;0.50;99.90;;;;;;5036835;28;20083;-78
2021/01/27 10:09:21;;;;;;;6.97;4.20;;;0.60;99.90;;;;;;5028717;28;20484;-77
2021/01/27 10:12:18;;;;;;;6.93;3.88;;;0.80;99.90;;;;;;5036803;28;20025;-78
2021/01/27 10:14:45;;;;;;;5.68;4.00;;;1.00;99.90;;;;;;5020735;28;20036;-79
2021/01/27 10:17:12;;;;;;;6.65;3.65;;;1.20;99.90;;;;;;5054197;28;20021;-78
2021/01/27 10:19:50;;;;;;;9.02;3.60;;;1.00;99.90;;;;;;5032512;28;20045;-77
2021/01/27 10:22:26;;;;;;;6.82;3.55;;;1.00;99.90;;;;;;5033116;28;20025;-77
2021/01/27 10:24:55;;;;;;;5.03;3.17;;;1.10;99.90;;;;;;5033094;28;20022;-77
2021/01/27 10:27:40;;;;;;;4.43;3.45;;;1.00;99.90;;;;;;5034683;28;20036;-78
2021/01/27 10:30:15;;;;;;;5.57;3.30;;;1.10;99.90;;;;;;5033112;28;20021;-78
2021/01/27 10:32:43;;;;;;;10.50;3.42;;;1.20;99.90;;;;;;5033021;28;20036;-78
2021/01/27 10:35:24;;;;;;;7.32;3.75;;;1.20;99.90;;;;;;5033002;28;20477;-77
2021/01/27 10:37:53;;;;;;;9.23;4.47;;;1.20;99.90;;;;;;5033937;28;20040;-78
2021/01/27 10:40:25;;;;;;;7.07;3.75;;;1.30;99.90;;;;;;5032905;28;20481;-77
2021/01/27 10:42:51;;;;;;;3.60;3.08;;;1.40;99.90;;;;;;5032817;28;20017;-77
2021/01/27 10:45:21;;;;;;;4.57;2.70;;;1.60;99.90;;;;;;5034115;28;20044;-77
2021/01/27 10:48:01;;;;;;;7.35;2.88;;;1.60;99.90;;;;;;5032809;28;20048;-77
2021/01/27 10:50:28;;;;;;;6.32;3.25;;;1.40;99.90;;;;;;5033058;28;20032;-77
2021/01/27 10:52:55;;;;;;;4.57;3.10;;;1.50;99.90;;;;;;5032745;28;20034;-77
2021/01/27 10:55:22;;;;;;;3.15;2.67;;;1.70;99.90;;;;;;5032955;28;20028;-77
2021/01/27 10:57:47;;;;;;;3.88;2.45;;;1.20;99.90;;;;;;5032296;28;20492;-78
2021/01/27 11:00:16;;;;;;;4.95;2.92;;;1.20;99.90;;;;;;5033385;28;20033;-78
2021/01/27 11:02:44;;;;;;;4.82;2.90;;;0.80;99.90;;;;;;5033763;28;20017;-77
2021/01/27 11:05:11;;;;;;;6.88;2.92;;;1.10;99.90;;;;;;5016078;28;20036;-77
2021/01/27 11:07:37;;;;;;;5.32;3.00;;;1.10;99.90;;;;;;5032417;28;20075;-77
2021/01/27 11:10:03;;;;;;;5.93;3.00;;;1.20;99.90;;;;;;5032505;28;20026;-77
2021/01/27 11:12:29;;;;;;;7.00;3.42;;;1.20;99.90;;;;;;5033630;28;20025;-77
2021/01/27 11:14:55;;;;;;;6.30;3.65;;;1.30;99.90;;;;;;5032373;28;20393;-77
2021/01/27 11:17:20;;;;;;;6.38;3.00;;;1.10;99.90;;;;;;5032302;28;20029;-77
2021/01/27 11:19:47;;;;;;;28.38;4.60;;;1.30;99.90;;;;;;5034220;28;20061;-76
2021/01/27 11:22:13;;;;;;;8.68;3.97;;;1.20;99.90;;;;;;5032080;28;20033;-76
2021/01/27 11:24:38;;;;;;;7.10;4.35;;;1.30;99.90;;;;;;5033490;28;20025;-77
2021/01/27 11:27:05;;;;;;;7.88;4.03;;;1.50;99.90;;;;;;5032167;28;20116;-78
2021/01/27 11:29:31;;;;;;;5.63;3.40;;;1.20;99.90;;;;;;5032114;28;20056;-77
2021/01/27 11:31:57;;;;;;;4.57;3.35;;;1.40;99.90;;;;;;5032125;28;20414;-76
2021/01/27 11:34:23;;;;;;;5.72;3.60;;;1.80;99.90;;;;;;5032119;28;20033;-75
2021/01/27 11:36:48;;;;;;;11.23;4.95;;;1.60;99.90;;;;;;5033436;28;20032;-75
2021/01/27 11:39:21;;;;;;;5.63;4.03;;;1.60;99.90;;;;;;5033815;28;20018;-77
2021/01/27 11:41:48;;;;;;;5.05;3.58;;;1.70;99.90;;;;;;5032866;28;20462;-78
2021/01/27 11:44:14;;;;;;;12.00;3.47;;;1.80;99.90;;;;;;5032037;28;20022;-82
2021/01/27 11:46:41;;;;;;;7.93;3.92;;;1.80;99.90;;;;;;5031960;28;20163;-80
2021/01/27 11:49:07;;;;;;;7.88;4.40;;;1.70;99.90;;;;;;5031975;28;20033;-80
2021/01/27 11:51:33;;;;;;;5.25;3.35;;;2.00;99.90;;;;;;5033267;28;20048;-81
2021/01/27 11:53:59;;;;;;;5.75;3.58;;;2.50;99.90;;;;;;5031905;28;20046;-81
2021/01/27 11:56:25;;;;;;;6.38;3.85;;;2.70;99.90;;;;;;5015494;28;20033;-80
2021/01/27 11:58:51;;;;;;;6.63;3.35;;;3.00;99.90;;;;;;5033035;28;20018;-84
2021/01/27 12:01:16;;;;;;;5.13;3.47;;;3.20;99.90;;;;;;5031768;28;20080;-84
2021/01/27 12:03:42;;;;;;;6.53;4.07;;;3.40;99.90;;;;;;5032645;28;20029;-82
2021/01/27 12:06:08;;;;;;;9.25;4.05;;;2.90;99.90;;;;;;5031858;28;20018;-83
2021/01/27 12:08:34;;;;;;;7.05;3.40;;;2.90;99.90;;;;;;5031890;28;20409;-84
2021/01/27 12:10:59;;;;;;;4.35;3.22;;;2.90;99.90;;;;;;5034501;28;20025;-83
2021/01/27 12:13:25;;;;;;;5.22;3.38;;;2.70;99.90;;;;;;5035385;28;20025;-82
2021/01/27 12:15:52;;;;;;;7.40;4.00;;;3.00;99.90;;;;;;5035631;28;20028;-81
2021/01/27 12:18:18;;;;;;;6.38;3.80;;;2.90;99.90;;;;;;5035323;28;20052;-81
2021/01/27 12:20:46;;;;;;;6.78;3.90;;;2.70;99.90;;;;;;5035543;28;20481;-82
2021/01/27 12:23:12;;;;;;;6.47;3.53;;;2.50;99.90;;;;;;5036762;28;20017;-82
2021/01/27 12:25:38;;;;;;;6.50;3.63;;;2.40;99.90;;;;;;5035432;28;20022;-82
2021/01/27 12:28:04;;;;;;;5.72;3.70;;;2.60;99.90;;;;;;5035400;28;20033;-82
2021/01/27 12:30:30;;;;;;;5.90;3.45;;;3.10;99.90;;;;;;5036931;28;20362;-83
2021/01/27 12:32:56;;;;;;;6.47;3.28;;;3.00;99.90;;;;;;5036635;28;20088;-83
2021/01/27 12:35:22;;;;;;;5.85;3.53;;;2.90;99.90;;;;;;5036592;28;20032;-82
2021/01/27 12:37:49;;;;;;;6.32;3.60;;;3.00;99.90;;;;;;5036352;28;20075;-82
2021/01/27 12:40:17;;;;;;;7.20;3.28;;;2.70;99.90;;;;;;5035218;28;20067;-80
2021/01/27 12:42:43;;;;;;;6.78;3.25;;;3.00;99.90;;;;;;5035165;28;20018;-82
2021/01/27 12:45:12;;;;;;;7.15;3.63;;;2.80;99.90;;;;;;5035123;28;20032;-82
2021/01/27 12:47:37;;;;;;;6.95;3.20;;;2.70;99.90;;;;;;5034979;28;20048;-85
2021/01/27 12:50:05;;;;;;;10.15;3.70;;;2.90;99.90;;;;;;5035317;28;20026;-87
2021/01/27 12:52:30;;;;;;;6.32;3.33;;;2.80;99.90;;;;;;5035291;28;20446;-81
2021/01/27 12:54:59;;;;;;;6.30;3.75;;;2.70;99.90;;;;;;5036407;28;20064;-86
2021/01/27 12:57:25;;;;;;;6.45;3.67;;;2.80;99.90;;;;;;5035089;28;20417;-85
2021/01/27 12:59:50;;;;;;;6.85;3.70;;;2.90;99.90;;;;;;5034799;28;20040;-82
2021/01/27 13:02:16;;;;;;;4.95;3.42;;;3.00;99.90;;;;;;5036051;28;20083;-82
2021/01/27 13:04:42;;;;;;;8.73;3.35;;;3.10;99.90;;;;;;5034822;28;20053;-83
2021/01/27 13:07:07;;;;;;;4.65;3.50;;;2.80;99.90;;;;;;5035989;28;20483;-82
2021/01/27 13:09:33;;;;;;;6.68;3.58;;;2.90;99.90;;;;;;5034648;28;20021;-82
2021/01/27 13:11:59;;;;;;;6.50;3.75;;;3.20;99.90;;;;;;5034619;28;20040;-82
2021/01/27 13:14:25;;;;;;;9.25;3.33;;;3.20;99.90;;;;;;5034570;28;20022;-83
2021/01/27 13:16:51;;;;;;;5.75;3.40;;;2.90;99.90;;;;;;5034465;28;20071;-84
2021/01/27 13:19:17;;;;;;;6.57;3.55;;;2.50;99.90;;;;;;5049164;28;20044;-84
2021/01/27 13:21:43;;;;;;;5.63;3.60;;;2.60;99.90;;;;;;5037354;28;20075;-84
2021/01/27 13:24:09;;;;;;;7.60;4.30;;;2.90;99.90;;;;;;5038617;28;20542;-84
2021/01/27 13:26:37;;;;;;;8.77;5.65;;;2.80;99.90;;;;;;5038306;28;20052;-84
2021/01/27 13:29:02;;;;;;;12.82;5.32;;;2.80;99.90;;;;;;5038201;28;20029;-86